Time;durP1;ratioP1;P1;durP2;ratioP2;P2;SDS_P1;SDS_P2;PMS_P1;PMS_P2;Temp;Humidity;BMP_temperature;BMP_pressure;BME280_temperature;BME280_humidity;BME280_pressure;Samples;Min_cycle;Max_cycle;Signal;HPM_P1;HPM_P2
2021/11/29 00:01:04;;;;;;;4.20;2.63;;;1.00;99.90;;;;;;5070197;28;20037;-86
2021/11/29 00:03:32;;;;;;;5.80;2.47;;;1.00;99.90;;;;;;5074918;28;20493;-86
2021/11/29 00:05:58;;;;;;;8.43;3.10;;;1.00;99.90;;;;;;5056120;28;20036;-86
2021/11/29 00:08:25;;;;;;;5.43;2.60;;;1.00;99.90;;;;;;5065048;28;20036;-86
2021/11/29 00:10:51;;;;;;;7.80;3.20;;;1.00;99.90;;;;;;5052399;28;20043;-85
2021/11/29 00:13:19;;;;;;;9.57;3.60;;;1.10;99.90;;;;;;5060708;28;20544;-86
2021/11/29 00:15:45;;;;;;;7.17;3.17;;;1.10;99.90;;;;;;5060099;28;20052;-87
2021/11/29 00:18:12;;;;;;;5.87;2.83;;;1.10;99.90;;;;;;5057576;28;20512;-87
2021/11/29 00:20:42;;;;;;;7.20;3.53;;;1.10;99.90;;;;;;5075190;28;20409;-87
2021/11/29 00:23:09;;;;;;;7.93;4.07;;;1.10;99.90;;;;;;5031383;28;20028;-87
2021/11/29 00:25:36;;;;;;;7.90;3.17;;;1.10;99.90;;;;;;5062076;28;20122;-87
2021/11/29 00:28:03;;;;;;;12.20;3.07;;;1.10;99.90;;;;;;5094425;28;20040;-88
2021/11/29 00:30:30;;;;;;;5.23;2.50;;;1.20;99.90;;;;;;5081293;28;20047;-87
2021/11/29 00:32:56;;;;;;;7.97;2.77;;;1.30;99.90;;;;;;5046249;28;20044;-80
2021/11/29 00:35:23;;;;;;;4.03;2.40;;;1.30;99.90;;;;;;5061754;28;20436;-80
2021/11/29 00:37:49;;;;;;;12.53;2.10;;;1.40;99.90;;;;;;5046613;28;20424;-88
2021/11/29 00:40:16;;;;;;;6.57;1.93;;;1.40;99.90;;;;;;5078076;28;20043;-88
2021/11/29 00:42:42;;;;;;;3.73;1.33;;;1.40;99.90;;;;;;5063744;28;20036;-80
2021/11/29 00:45:10;;;;;;;6.10;2.00;;;1.40;99.90;;;;;;5080646;28;20042;-80
2021/11/29 00:47:37;;;;;;;5.20;1.33;;;1.30;99.90;;;;;;5064682;28;20039;-88
2021/11/29 00:50:06;;;;;;;4.17;1.17;;;1.30;99.90;;;;;;5055369;28;20059;-87
2021/11/29 00:52:32;;;;;;;3.53;1.20;;;1.30;99.90;;;;;;5064083;28;20393;-81
2021/11/29 00:54:59;;;;;;;4.80;1.13;;;1.20;99.90;;;;;;5021270;28;20039;-88
2021/11/29 00:57:25;;;;;;;3.30;0.83;;;1.20;99.90;;;;;;5038696;28;20044;-88
2021/11/29 00:59:52;;;;;;;3.90;0.80;;;1.20;99.90;;;;;;5072115;28;20036;-88
2021/11/29 01:02:20;;;;;;;4.37;0.97;;;1.10;99.90;;;;;;5056574;28;20043;-79
2021/11/29 01:04:48;;;;;;;3.23;0.73;;;1.10;99.90;;;;;;5070026;28;20036;-79
2021/11/29 01:07:15;;;;;;;5.07;0.80;;;1.10;99.90;;;;;;5088310;28;20028;-86
2021/11/29 01:09:42;;;;;;;4.60;0.80;;;1.10;99.90;;;;;;5071186;28;20041;-79
2021/11/29 01:12:10;;;;;;;2.43;0.73;;;1.20;99.90;;;;;;5053441;28;20040;-81
2021/11/29 01:14:36;;;;;;;6.10;0.50;;;1.10;99.90;;;;;;5053269;28;20047;-79
2021/11/29 01:17:03;;;;;;;2.93;0.60;;;1.10;99.90;;;;;;5069668;28;20028;-87
2021/11/29 01:19:30;;;;;;;1.70;0.57;;;1.10;99.90;;;;;;5039564;28;20036;-80
2021/11/29 01:21:56;;;;;;;2.53;0.47;;;1.00;99.90;;;;;;5071993;28;20055;-87
2021/11/29 01:24:23;;;;;;;4.13;0.40;;;1.10;99.90;;;;;;5085929;28;20028;-87
2021/11/29 01:26:49;;;;;;;2.67;0.40;;;1.00;99.90;;;;;;5037910;28;20040;-80
2021/11/29 01:29:16;;;;;;;2.03;0.43;;;1.00;99.90;;;;;;5071995;28;20388;-87
2021/11/29 01:31:42;;;;;;;2.60;0.40;;;1.00;99.90;;;;;;5054770;28;20058;-80
2021/11/29 01:34:09;;;;;;;2.00;0.60;;;1.10;99.90;;;;;;5068826;28;20043;-80
2021/11/29 01:36:36;;;;;;;5.27;0.60;;;1.10;99.90;;;;;;5058329;28;20043;-80
2021/11/29 01:39:07;;;;;;;1.27;0.30;;;1.10;99.90;;;;;;5054666;28;20048;-80
2021/11/29 01:41:34;;;;;;;2.67;0.30;;;1.10;99.90;;;;;;5088451;28;20468;-86
2021/11/29 01:44:00;;;;;;;2.67;0.60;;;1.10;99.90;;;;;;5053960;28;20044;-80
2021/11/29 01:46:27;;;;;;;3.93;0.40;;;1.10;99.90;;;;;;5037808;28;20388;-88
2021/11/29 01:48:53;;;;;;;2.97;0.60;;;1.20;99.90;;;;;;5075921;28;20047;-88
2021/11/29 01:51:20;;;;;;;1.20;0.37;;;1.20;99.90;;;;;;5062507;28;20369;-80
2021/11/29 01:53:47;;;;;;;4.27;0.40;;;1.20;99.90;;;;;;5064118;28;20036;-87
2021/11/29 01:56:13;;;;;;;0.60;0.27;;;1.20;99.90;;;;;;5061971;28;20040;-80
2021/11/29 01:58:40;;;;;;;2.23;0.50;;;1.20;99.90;;;;;;5067318;28;20039;-88
2021/11/29 02:01:17;;;;;;;2.00;0.60;;;1.20;99.90;;;;;;5065575;28;20043;-88
2021/11/29 02:03:46;;;;;;;2.57;0.40;;;1.20;99.90;;;;;;5068763;28;20040;-80
2021/11/29 02:06:13;;;;;;;3.17;0.40;;;1.20;99.90;;;;;;5050975;28;20135;-81
2021/11/29 02:08:40;;;;;;;2.03;0.30;;;1.20;99.90;;;;;;5083594;28;20047;-80
2021/11/29 02:11:06;;;;;;;1.37;0.40;;;1.30;99.90;;;;;;5084638;28;20511;-81
2021/11/29 02:13:33;;;;;;;0.90;0.40;;;1.20;99.90;;;;;;5083501;28;20031;-80
2021/11/29 02:16:00;;;;;;;3.30;0.67;;;1.30;99.90;;;;;;5101228;28;20039;-79
2021/11/29 02:18:29;;;;;;;2.73;0.73;;;1.30;99.90;;;;;;5061499;28;20036;-78
2021/11/29 02:21:18;;;;;;;3.90;0.70;;;1.30;99.90;;;;;;5078984;28;20032;-79
2021/11/29 02:23:54;;;;;;;6.23;0.80;;;1.30;99.90;;;;;;5053027;28;20630;-79
2021/11/29 02:26:25;;;;;;;2.13;0.40;;;1.30;99.90;;;;;;5108945;28;20743;-80
2021/11/29 02:28:55;;;;;;;2.70;0.73;;;1.30;99.90;;;;;;5063218;28;20043;-80
2021/11/29 02:31:26;;;;;;;3.13;0.70;;;1.20;99.90;;;;;;5085364;28;20039;-88
2021/11/29 02:33:53;;;;;;;6.13;0.60;;;1.20;99.90;;;;;;5096496;28;20031;-87
2021/11/29 02:36:19;;;;;;;2.47;1.00;;;1.20;99.90;;;;;;5084784;28;20044;-87
2021/11/29 02:38:46;;;;;;;1.90;0.40;;;1.30;99.90;;;;;;5070127;28;20036;-88
2021/11/29 02:41:13;;;;;;;4.83;0.77;;;1.20;99.90;;;;;;5106128;28;20035;-87
2021/11/29 02:43:39;;;;;;;3.97;0.40;;;1.20;99.90;;;;;;5084145;28;20043;-87
2021/11/29 02:46:06;;;;;;;2.07;0.50;;;1.20;99.90;;;;;;5082820;28;20031;-87
2021/11/29 02:48:46;;;;;;;1.90;0.80;;;1.20;99.90;;;;;;5101993;27;20039;-87
2021/11/29 02:51:26;;;;;;;2.30;0.53;;;1.20;99.90;;;;;;5113230;28;20032;-80
2021/11/29 02:54:04;;;;;;;1.53;0.63;;;1.10;99.90;;;;;;5100119;28;20043;-87
2021/11/29 02:56:31;;;;;;;4.80;0.53;;;1.20;99.90;;;;;;5100901;27;20024;-87
2021/11/29 02:58:58;;;;;;;2.73;0.50;;;1.20;99.90;;;;;;5049863;28;20036;-87
2021/11/29 03:01:24;;;;;;;2.83;0.40;;;1.10;99.90;;;;;;5067060;28;20123;-87
2021/11/29 03:03:53;;;;;;;2.27;0.60;;;1.10;99.90;;;;;;5081661;28;20039;-86
2021/11/29 03:06:20;;;;;;;3.93;0.60;;;1.10;99.90;;;;;;5050041;27;20040;-86
2021/11/29 03:08:47;;;;;;;2.33;0.50;;;1.10;99.90;;;;;;5062879;28;20400;-87
2021/11/29 03:11:16;;;;;;;4.97;0.40;;;1.10;99.90;;;;;;5083993;28;20709;-87
2021/11/29 03:13:43;;;;;;;4.20;0.60;;;1.10;99.90;;;;;;5076269;28;20048;-80
2021/11/29 03:16:10;;;;;;;5.83;0.40;;;1.10;99.90;;;;;;5065446;28;20043;-80
2021/11/29 03:18:40;;;;;;;1.80;0.50;;;1.00;99.90;;;;;;5063198;28;20051;-80
2021/11/29 03:21:08;;;;;;;1.53;0.50;;;1.10;99.90;;;;;;5077721;28;20039;-80
2021/11/29 03:23:36;;;;;;;4.17;0.50;;;1.00;99.90;;;;;;5065591;28;20036;-87
2021/11/29 03:26:08;;;;;;;3.87;0.50;;;1.00;99.90;;;;;;5080233;28;20039;-86
2021/11/29 03:28:40;;;;;;;4.13;0.40;;;1.00;99.90;;;;;;5067231;28;20036;-87
2021/11/29 03:31:08;;;;;;;3.90;0.40;;;1.00;99.90;;;;;;5062301;28;20054;-80
2021/11/29 03:33:36;;;;;;;3.20;0.30;;;1.00;99.90;;;;;;5075534;28;20367;-80
2021/11/29 03:36:04;;;;;;;2.90;0.40;;;1.00;99.90;;;;;;5031392;28;20512;-79
2021/11/29 03:38:31;;;;;;;0.97;0.30;;;0.90;99.90;;;;;;5102255;28;20035;-80
2021/11/29 03:40:59;;;;;;;3.63;0.40;;;0.90;99.90;;;;;;5074195;28;20040;-86
2021/11/29 03:43:26;;;;;;;3.20;0.50;;;0.90;99.90;;;;;;5084282;28;20042;-79
2021/11/29 03:45:52;;;;;;;2.90;0.40;;;0.90;99.90;;;;;;5079237;28;20028;-86
2021/11/29 03:48:20;;;;;;;0.93;0.40;;;0.90;99.90;;;;;;5068490;28;20378;-80
2021/11/29 03:50:47;;;;;;;2.83;0.50;;;1.00;99.90;;;;;;5085071;28;20497;-80
2021/11/29 03:53:14;;;;;;;2.90;0.50;;;0.90;99.90;;;;;;5084428;27;20046;-81
2021/11/29 03:55:40;;;;;;;1.17;0.30;;;0.90;99.90;;;;;;5047215;28;20054;-87
2021/11/29 03:58:07;;;;;;;4.70;0.40;;;0.90;99.90;;;;;;5084072;28;20035;-87
2021/11/29 04:00:35;;;;;;;2.13;0.30;;;0.90;99.90;;;;;;5067140;28;20054;-87
2021/11/29 04:03:01;;;;;;;1.97;0.40;;;0.80;99.90;;;;;;5085869;27;20501;-87
2021/11/29 04:05:28;;;;;;;3.13;0.40;;;0.80;99.90;;;;;;5059311;27;20035;-87
2021/11/29 04:07:55;;;;;;;2.80;0.30;;;0.80;99.90;;;;;;5050127;27;21197;-87
2021/11/29 04:10:21;;;;;;;4.83;0.50;;;0.80;99.90;;;;;;5103056;28;20040;-87
2021/11/29 04:12:48;;;;;;;5.13;0.57;;;0.80;99.90;;;;;;5086047;27;20027;-88
2021/11/29 04:15:15;;;;;;;3.33;0.30;;;0.80;99.90;;;;;;5056876;28;20489;-80
2021/11/29 04:17:41;;;;;;;6.07;0.50;;;0.80;99.90;;;;;;5076606;28;20129;-80
2021/11/29 04:20:10;;;;;;;3.63;0.53;;;0.80;99.90;;;;;;5044347;27;20036;-79
2021/11/29 04:22:38;;;;;;;2.53;0.50;;;0.90;99.90;;;;;;5062868;28;20069;-80
2021/11/29 04:25:06;;;;;;;1.53;0.40;;;0.90;99.90;;;;;;5059321;28;20265;-87
2021/11/29 04:27:35;;;;;;;2.17;0.40;;;0.90;99.90;;;;;;5067275;28;20032;-80
2021/11/29 04:30:09;;;;;;;2.20;0.50;;;0.90;99.90;;;;;;5038195;28;20062;-80
2021/11/29 04:32:36;;;;;;;1.33;0.40;;;0.90;99.90;;;;;;5047632;28;20040;-80
2021/11/29 04:35:02;;;;;;;4.40;0.50;;;0.90;99.90;;;;;;5031685;28;20036;-79
2021/11/29 04:37:29;;;;;;;2.20;0.60;;;0.90;99.90;;;;;;5083222;28;20040;-80
2021/11/29 04:39:55;;;;;;;1.97;0.63;;;0.90;99.90;;;;;;5051558;28;20039;-80
2021/11/29 04:42:22;;;;;;;3.00;0.50;;;0.90;99.90;;;;;;5100112;28;20027;-80
2021/11/29 04:44:48;;;;;;;1.97;0.60;;;0.90;99.90;;;;;;5081212;28;20039;-79
2021/11/29 04:47:15;;;;;;;2.47;0.50;;;0.90;99.90;;;;;;5060562;28;20036;-80
2021/11/29 04:49:41;;;;;;;2.43;0.80;;;0.90;99.90;;;;;;5081842;28;20496;-80
2021/11/29 04:52:08;;;;;;;4.83;0.93;;;0.90;99.90;;;;;;5064775;28;20062;-80
2021/11/29 04:54:34;;;;;;;2.50;1.03;;;0.90;99.90;;;;;;5048033;28;20036;-80
2021/11/29 04:57:01;;;;;;;3.47;1.00;;;1.00;99.90;;;;;;5063764;28;20038;-80
2021/11/29 04:59:27;;;;;;;11.40;1.00;;;1.00;99.90;;;;;;5080603;28;20043;-80
2021/11/29 05:01:55;;;;;;;3.13;1.00;;;1.00;99.90;;;;;;5065037;28;20476;-80
2021/11/29 05:04:22;;;;;;;7.43;1.23;;;1.00;99.90;;;;;;5043991;28;20362;-79
2021/11/29 05:06:48;;;;;;;2.73;0.87;;;1.00;99.90;;;;;;5044625;28;20493;-80
2021/11/29 05:09:15;;;;;;;3.77;0.80;;;1.10;99.90;;;;;;5046030;28;20051;-80
2021/11/29 05:11:41;;;;;;;4.10;0.83;;;1.00;99.90;;;;;;5065675;28;20044;-80
2021/11/29 05:14:08;;;;;;;5.30;0.70;;;1.00;99.90;;;;;;5077052;28;20485;-80
2021/11/29 05:16:35;;;;;;;1.97;0.80;;;1.10;99.90;;;;;;5078643;28;20043;-80
2021/11/29 05:19:03;;;;;;;4.50;0.87;;;1.10;99.90;;;;;;5048201;28;20048;-80
2021/11/29 05:21:29;;;;;;;7.13;0.70;;;1.10;99.90;;;;;;5042102;28;20143;-79
2021/11/29 05:23:56;;;;;;;3.10;0.77;;;1.00;99.90;;;;;;5043591;28;20036;-79
2021/11/29 05:26:24;;;;;;;7.87;1.10;;;1.00;99.90;;;;;;5031567;28;20047;-79
2021/11/29 05:28:52;;;;;;;4.47;1.00;;;1.00;99.90;;;;;;5044542;28;20039;-79
2021/11/29 05:31:20;;;;;;;6.87;0.80;;;1.00;99.90;;;;;;5046589;28;20035;-80
2021/11/29 05:33:47;;;;;;;5.53;0.60;;;1.00;99.90;;;;;;5044305;28;20476;-79
2021/11/29 05:36:15;;;;;;;2.67;0.93;;;1.00;99.90;;;;;;5044005;28;21208;-79
2021/11/29 05:38:42;;;;;;;3.63;0.90;;;1.00;99.90;;;;;;5061613;28;20039;-79
2021/11/29 05:41:08;;;;;;;3.70;0.83;;;1.00;99.90;;;;;;5079042;28;20028;-79
2021/11/29 05:43:35;;;;;;;4.63;0.90;;;1.00;99.90;;;;;;5046207;28;20036;-79
2021/11/29 05:46:02;;;;;;;3.17;0.70;;;1.00;99.90;;;;;;5080698;28;20024;-79
2021/11/29 05:48:29;;;;;;;6.73;1.13;;;0.90;99.90;;;;;;5081083;28;20039;-79
2021/11/29 05:50:57;;;;;;;6.30;1.60;;;0.90;99.90;;;;;;5077972;28;20439;-79
2021/11/29 05:53:24;;;;;;;3.43;0.67;;;0.90;99.90;;;;;;5081844;28;20036;-79
2021/11/29 05:55:53;;;;;;;6.77;0.83;;;0.90;99.90;;;;;;5079845;28;20514;-79
2021/11/29 05:58:19;;;;;;;5.20;0.90;;;0.90;99.90;;;;;;5067210;28;20038;-79
2021/11/29 06:00:46;;;;;;;2.90;0.73;;;0.90;99.90;;;;;;5050227;28;20047;-79
2021/11/29 06:03:12;;;;;;;5.67;1.10;;;0.90;99.90;;;;;;5050228;28;20113;-78
2021/11/29 06:05:39;;;;;;;3.33;0.70;;;0.90;99.90;;;;;;5061407;28;20032;-79
2021/11/29 06:08:05;;;;;;;3.97;0.70;;;0.90;99.90;;;;;;5063016;28;20400;-86
2021/11/29 06:10:32;;;;;;;3.77;0.80;;;0.90;99.90;;;;;;5085295;28;20043;-79
2021/11/29 06:12:58;;;;;;;5.63;0.70;;;0.90;99.90;;;;;;5048960;28;20040;-78
2021/11/29 06:15:25;;;;;;;5.03;0.80;;;0.90;99.90;;;;;;5045519;28;20032;-85
2021/11/29 06:17:51;;;;;;;6.20;1.13;;;0.90;99.90;;;;;;5062563;28;20037;-85
2021/11/29 06:20:22;;;;;;;4.47;0.80;;;0.90;99.90;;;;;;5047336;28;20039;-86
2021/11/29 06:22:50;;;;;;;2.63;0.77;;;0.90;99.90;;;;;;5061010;28;20463;-86
2021/11/29 06:25:18;;;;;;;2.47;0.70;;;0.90;99.90;;;;;;5060547;28;20044;-85
2021/11/29 06:27:44;;;;;;;4.63;0.97;;;0.90;99.90;;;;;;5063736;28;20479;-86
2021/11/29 06:30:11;;;;;;;3.30;0.70;;;0.80;99.90;;;;;;5075075;28;20485;-85
2021/11/29 06:32:39;;;;;;;6.00;1.20;;;0.90;99.90;;;;;;5061745;28;20070;-83
2021/11/29 06:35:06;;;;;;;4.43;1.33;;;1.00;99.90;;;;;;5074883;28;20062;-84
2021/11/29 06:37:34;;;;;;;3.43;1.20;;;1.10;99.90;;;;;;5070541;28;20032;-85
2021/11/29 06:40:05;;;;;;;6.03;1.70;;;1.10;99.90;;;;;;5057181;28;20380;-82
2021/11/29 06:42:32;;;;;;;4.43;1.53;;;1.10;99.90;;;;;;5066874;28;20032;-78
2021/11/29 06:44:59;;;;;;;7.57;2.80;;;1.00;99.90;;;;;;5072462;28;20038;-81
2021/11/29 06:47:25;;;;;;;5.33;1.40;;;1.00;99.90;;;;;;5077917;28;20397;-78
2021/11/29 06:49:52;;;;;;;8.13;3.40;;;1.00;99.90;;;;;;5080373;28;20048;-82
2021/11/29 06:52:18;;;;;;;6.83;2.17;;;1.00;99.90;;;;;;5063126;28;20032;-76
2021/11/29 06:54:48;;;;;;;7.37;1.60;;;1.10;99.90;;;;;;5042290;28;20388;-79
2021/11/29 06:57:16;;;;;;;12.17;1.93;;;1.10;99.90;;;;;;5052697;28;20046;-81
2021/11/29 06:59:44;;;;;;;7.40;2.30;;;1.20;99.90;;;;;;5063811;28;20036;-78
2021/11/29 07:02:11;;;;;;;5.40;1.60;;;1.40;99.90;;;;;;5083634;28;20043;-81
2021/11/29 07:04:37;;;;;;;4.37;1.57;;;1.40;99.90;;;;;;5065451;28;20039;-80
2021/11/29 07:07:06;;;;;;;7.57;2.43;;;1.50;99.90;;;;;;5031320;28;20066;-79
2021/11/29 07:09:33;;;;;;;6.47;2.30;;;1.50;99.90;;;;;;5048957;28;20036;-81
2021/11/29 07:12:00;;;;;;;7.70;2.00;;;1.50;99.90;;;;;;5052684;28;20489;-81
2021/11/29 07:14:27;;;;;;;7.77;1.80;;;1.50;99.90;;;;;;5076961;28;20054;-75
2021/11/29 07:16:54;;;;;;;8.73;1.87;;;1.60;99.90;;;;;;5091530;28;20507;-78
2021/11/29 07:19:20;;;;;;;8.70;2.20;;;1.60;99.90;;;;;;5066280;28;20031;-77
2021/11/29 07:21:47;;;;;;;5.83;2.60;;;1.70;99.90;;;;;;5051695;28;20036;-78
2021/11/29 07:24:14;;;;;;;5.93;2.33;;;1.80;99.90;;;;;;5065748;27;20039;-78
2021/11/29 07:26:44;;;;;;;6.03;2.70;;;1.80;99.90;;;;;;5061226;28;20035;-77
2021/11/29 07:29:12;;;;;;;4.63;2.40;;;1.90;99.90;;;;;;5063979;28;20044;-77
2021/11/29 07:31:40;;;;;;;8.63;1.87;;;1.90;99.90;;;;;;5064608;28;20035;-77
2021/11/29 07:34:06;;;;;;;4.70;1.47;;;2.00;99.90;;;;;;5093953;28;20043;-79
2021/11/29 07:36:33;;;;;;;3.27;1.50;;;2.00;99.90;;;;;;5045704;28;20036;-78
2021/11/29 07:38:59;;;;;;;6.03;1.47;;;2.00;99.90;;;;;;5098346;28;20049;-78
2021/11/29 07:41:26;;;;;;;8.23;2.57;;;2.10;99.90;;;;;;5111660;28;20047;-77
2021/11/29 07:43:52;;;;;;;7.30;2.13;;;2.10;99.90;;;;;;5065326;28;20042;-78
2021/11/29 07:46:19;;;;;;;8.83;1.53;;;2.10;99.90;;;;;;5051587;28;20535;-78
2021/11/29 07:48:45;;;;;;;5.97;1.53;;;2.20;99.90;;;;;;5111534;28;20471;-76
2021/11/29 07:51:12;;;;;;;4.60;1.10;;;2.20;99.90;;;;;;5066467;28;20411;-78
2021/11/29 07:53:38;;;;;;;6.70;1.30;;;2.30;99.90;;;;;;5051914;28;20066;-78
2021/11/29 07:56:04;;;;;;;5.73;2.07;;;2.40;99.90;;;;;;5067772;28;20062;-77
2021/11/29 07:58:31;;;;;;;16.03;2.87;;;2.40;99.90;;;;;;5062637;28;20408;-81
2021/11/29 08:00:57;;;;;;;7.40;2.87;;;2.50;99.90;;;;;;5065728;28;20488;-77
2021/11/29 08:03:24;;;;;;;12.90;5.03;;;2.50;99.90;;;;;;5074565;28;20047;-77
2021/11/29 08:05:50;;;;;;;9.37;2.87;;;2.60;99.90;;;;;;5045461;28;20039;-77
2021/11/29 08:08:17;;;;;;;7.20;1.80;;;2.60;99.90;;;;;;5084042;28;20496;-87
2021/11/29 08:10:43;;;;;;;7.20;2.60;;;2.60;99.90;;;;;;5069874;28;20109;-87
2021/11/29 08:13:13;;;;;;;7.73;1.93;;;2.70;99.90;;;;;;5048579;28;20039;-87
2021/11/29 08:15:40;;;;;;;6.37;1.40;;;2.70;99.90;;;;;;5066867;28;20056;-86
2021/11/29 08:18:08;;;;;;;5.80;1.00;;;2.80;99.90;;;;;;5086907;28;20028;-86
2021/11/29 08:20:35;;;;;;;7.00;1.40;;;2.80;99.90;;;;;;5088252;27;20051;-86
2021/11/29 08:23:02;;;;;;;5.73;1.80;;;2.80;99.90;;;;;;5083206;28;20034;-86
2021/11/29 08:25:28;;;;;;;5.65;1.38;;;2.90;99.90;;;;;;5084958;28;20042;-86
2021/11/29 08:27:55;;;;;;;3.07;0.80;;;2.90;99.90;;;;;;5097320;28;20047;-86
2021/11/29 08:30:25;;;;;;;4.10;0.97;;;3.00;99.90;;;;;;5111864;28;20046;-85
2021/11/29 08:32:53;;;;;;;9.30;1.03;;;3.00;99.90;;;;;;5084582;28;20036;-86
2021/11/29 08:35:20;;;;;;;7.33;1.33;;;3.00;99.90;;;;;;5092647;28;20043;-86
2021/11/29 08:37:50;;;;;;;6.73;1.00;;;3.00;99.90;;;;;;5082208;28;20051;-86
2021/11/29 08:40:26;;;;;;;2.77;0.90;;;3.00;99.90;;;;;;5095654;28;20393;-85
2021/11/29 08:42:55;;;;;;;6.93;1.00;;;3.10;99.90;;;;;;5091072;28;20039;-86
2021/11/29 08:45:22;;;;;;;3.30;1.07;;;3.20;99.90;;;;;;5080569;27;20062;-85
2021/11/29 08:47:49;;;;;;;5.93;1.13;;;3.20;99.90;;;;;;5048394;28;20386;-85
2021/11/29 08:50:15;;;;;;;6.67;1.20;;;3.20;99.90;;;;;;5103160;28;20047;-86
2021/11/29 08:52:44;;;;;;;3.58;0.98;;;3.10;99.90;;;;;;5080913;28;20389;-86
2021/11/29 08:55:11;;;;;;;6.30;0.95;;;3.10;99.90;;;;;;5069967;28;20047;-86
2021/11/29 08:57:39;;;;;;;3.57;0.90;;;3.00;99.90;;;;;;5077891;28;20037;-85
2021/11/29 09:00:09;;;;;;;6.97;1.20;;;2.90;99.90;;;;;;5079760;28;20385;-86
2021/11/29 09:02:36;;;;;;;3.80;0.75;;;2.90;99.90;;;;;;5105320;28;20038;-85
2021/11/29 09:05:04;;;;;;;6.20;1.33;;;2.90;99.90;;;;;;5087387;28;20047;-86
2021/11/29 09:07:31;;;;;;;6.47;0.80;;;2.90;99.90;;;;;;5082049;28;20369;-86
2021/11/29 09:09:58;;;;;;;7.17;1.20;;;3.00;99.90;;;;;;5099888;28;20032;-77
2021/11/29 09:12:25;;;;;;;6.50;0.93;;;3.10;99.90;;;;;;5067266;28;20027;-77
2021/11/29 09:14:52;;;;;;;3.50;0.73;;;3.10;99.90;;;;;;5098133;28;20054;-77
2021/11/29 09:17:18;;;;;;;6.10;0.73;;;3.20;99.90;;;;;;5048679;28;20111;-77
2021/11/29 09:19:45;;;;;;;3.63;0.80;;;3.30;99.90;;;;;;5060363;28;20042;-86
2021/11/29 09:22:12;;;;;;;4.90;0.97;;;3.50;99.90;;;;;;5088285;28;20046;-82
2021/11/29 09:24:38;;;;;;;7.57;1.80;;;3.60;99.90;;;;;;5098778;28;20043;-88
2021/11/29 09:27:05;;;;;;;4.47;1.27;;;3.80;99.90;;;;;;5080729;28;20039;-86
2021/11/29 09:29:31;;;;;;;5.70;1.85;;;4.00;99.90;;;;;;5102100;28;20154;-85
2021/11/29 09:31:58;;;;;;;3.73;1.03;;;4.10;99.90;;;;;;5096456;28;20614;-83
2021/11/29 09:34:25;;;;;;;4.43;1.10;;;4.20;99.90;;;;;;5095620;28;20028;-85
2021/11/29 09:36:51;;;;;;;5.07;0.83;;;4.30;99.90;;;;;;5058572;28;20047;-85
2021/11/29 09:39:18;;;;;;;4.68;0.85;;;4.50;99.90;;;;;;5107288;28;20027;-85
2021/11/29 09:41:44;;;;;;;5.10;0.75;;;4.60;99.90;;;;;;5100243;28;20043;-85
2021/11/29 09:44:11;;;;;;;4.32;1.20;;;4.60;99.90;;;;;;5058283;28;20043;-85
2021/11/29 09:46:37;;;;;;;4.55;0.70;;;4.70;99.90;;;;;;5094655;28;20498;-84
2021/11/29 09:49:03;;;;;;;3.47;0.60;;;4.80;99.90;;;;;;5061091;28;20498;-85
2021/11/29 09:51:31;;;;;;;5.15;1.00;;;4.80;99.90;;;;;;5102076;28;20031;-84
2021/11/29 09:53:57;;;;;;;5.03;1.02;;;4.90;99.90;;;;;;5081028;28;20028;-85
2021/11/29 09:56:24;;;;;;;2.67;0.63;;;4.90;99.90;;;;;;5081472;28;20472;-85
2021/11/29 09:58:51;;;;;;;3.65;0.88;;;4.90;99.90;;;;;;5095336;28;20034;-85
2021/11/29 10:01:18;;;;;;;4.03;0.82;;;5.00;99.90;;;;;;5098649;28;20488;-85
2021/11/29 10:03:44;;;;;;;5.55;0.90;;;5.10;99.90;;;;;;5063475;28;20043;-85
2021/11/29 10:06:10;;;;;;;4.80;0.85;;;5.10;99.90;;;;;;5111719;28;20043;-85
2021/11/29 10:08:39;;;;;;;4.53;0.82;;;5.10;99.90;;;;;;5080148;28;20044;-84
2021/11/29 10:11:11;;;;;;;4.28;0.80;;;5.10;99.90;;;;;;5075532;28;20496;-84
2021/11/29 10:14:01;;;;;;;1.90;0.50;;;5.10;99.90;;;;;;5113246;28;20039;-85
2021/11/29 10:16:41;;;;;;;3.72;0.70;;;5.10;99.90;;;;;;5075079;28;20628;-85
2021/11/29 10:19:28;;;;;;;3.10;0.90;;;5.20;99.90;;;;;;5057339;27;20032;-85
2021/11/29 10:22:21;;;;;;;1.80;0.82;;;5.30;99.90;;;;;;5094477;28;20418;-85
2021/11/29 10:24:50;;;;;;;3.38;0.50;;;5.30;99.90;;;;;;5094953;28;20028;-84
2021/11/29 10:27:18;;;;;;;2.08;0.60;;;5.30;99.90;;;;;;5096090;28;20031;-84
2021/11/29 10:29:51;;;;;;;2.95;0.57;;;5.40;99.90;;;;;;5107622;28;20036;-84
2021/11/29 10:32:40;;;;;;;3.92;0.90;;;5.40;99.90;;;;;;5064081;28;20032;-85
2021/11/29 10:35:08;;;;;;;3.28;0.55;;;5.50;99.90;;;;;;5107023;28;20032;-84
2021/11/29 10:37:37;;;;;;;3.78;0.70;;;5.40;99.90;;;;;;5079943;28;20457;-85
2021/11/29 10:40:09;;;;;;;2.90;0.80;;;5.50;99.90;;;;;;5085987;28;20039;-85
2021/11/29 10:42:37;;;;;;;4.53;0.60;;;5.50;99.90;;;;;;5087725;28;20046;-77
2021/11/29 10:45:05;;;;;;;3.58;0.80;;;5.50;99.90;;;;;;5112790;28;20381;-78
2021/11/29 10:47:33;;;;;;;3.38;0.73;;;5.60;99.90;;;;;;5062737;28;20397;-78
2021/11/29 10:50:05;;;;;;;1.80;0.70;;;5.60;99.90;;;;;;5057669;28;20051;-78
2021/11/29 10:52:35;;;;;;;3.72;0.52;;;5.60;99.90;;;;;;5073081;28;20366;-78
2021/11/29 10:55:04;;;;;;;1.55;0.60;;;5.50;99.90;;;;;;5087548;28;20094;-77
2021/11/29 10:57:31;;;;;;;4.10;0.77;;;5.40;99.90;;;;;;5109872;28;20032;-78
2021/11/29 10:59:57;;;;;;;1.40;0.57;;;5.30;99.90;;;;;;5060643;28;20031;-78
2021/11/29 11:02:26;;;;;;;2.47;0.60;;;5.10;99.90;;;;;;5079534;28;20040;-77
2021/11/29 11:05:08;;;;;;;4.28;0.50;;;5.00;99.90;;;;;;5078075;28;20082;-78
2021/11/29 11:07:36;;;;;;;4.47;1.10;;;5.00;99.90;;;;;;5059685;28;20488;-79
2021/11/29 11:10:09;;;;;;;5.30;0.75;;;5.00;99.90;;;;;;5063271;28;20067;-78
2021/11/29 11:12:37;;;;;;;2.58;1.20;;;5.00;99.90;;;;;;5057067;28;20045;-78
2021/11/29 11:15:15;;;;;;;1.25;0.52;;;5.00;99.90;;;;;;5087831;28;20051;-78
2021/11/29 11:17:41;;;;;;;3.42;1.02;;;5.00;99.90;;;;;;5109147;28;20036;-78
2021/11/29 11:20:12;;;;;;;1.92;0.60;;;5.00;99.90;;;;;;5066407;28;20036;-78
2021/11/29 11:22:43;;;;;;;1.50;0.68;;;5.10;99.90;;;;;;5110518;28;20043;-78
2021/11/29 11:25:13;;;;;;;3.45;0.73;;;5.10;99.90;;;;;;5102935;28;20062;-78
2021/11/29 11:27:43;;;;;;;5.07;0.90;;;5.20;99.90;;;;;;5095623;28;20481;-78
2021/11/29 11:30:17;;;;;;;1.95;0.70;;;5.40;99.90;;;;;;5109308;28;20050;-78
2021/11/29 11:32:46;;;;;;;3.03;0.65;;;5.60;99.90;;;;;;5098033;28;20122;-78
2021/11/29 11:35:19;;;;;;;4.05;0.80;;;5.80;99.90;;;;;;5064498;28;20035;-77
2021/11/29 11:37:55;;;;;;;3.45;0.60;;;5.80;99.90;;;;;;5112222;28;20038;-77
2021/11/29 11:40:27;;;;;;;2.92;1.05;;;5.80;99.90;;;;;;5093690;28;20038;-77
2021/11/29 11:42:55;;;;;;;4.03;0.50;;;5.90;99.90;;;;;;5112759;28;20047;-76
2021/11/29 11:45:29;;;;;;;2.30;0.50;;;6.10;99.90;;;;;;5112352;28;20368;-77
2021/11/29 11:47:59;;;;;;;3.10;0.73;;;6.20;99.90;;;;;;5099933;28;20484;-77
2021/11/29 11:50:29;;;;;;;6.50;0.95;;;6.30;99.90;;;;;;5108609;28;20042;-77
2021/11/29 11:52:59;;;;;;;2.50;1.00;;;6.50;99.90;;;;;;5107652;28;20036;-77
2021/11/29 11:55:32;;;;;;;6.28;1.30;;;6.50;99.90;;;;;;5105784;28;20027;-80
2021/11/29 11:58:02;;;;;;;9.52;3.40;;;6.60;99.90;;;;;;5076420;28;20419;-76
2021/11/29 12:00:36;;;;;;;5.03;2.00;;;6.50;99.90;;;;;;5112660;28;20480;-77
2021/11/29 12:03:12;;;;;;;1.90;0.98;;;6.60;99.90;;;;;;5063311;28;20040;-76
2021/11/29 12:05:50;;;;;;;5.88;1.00;;;6.60;99.90;;;;;;5090097;28;20046;-77
2021/11/29 12:08:41;;;;;;;3.22;0.90;;;6.80;99.90;;;;;;5092036;28;20039;-76
2021/11/29 12:11:23;;;;;;;3.95;0.73;;;6.90;99.90;;;;;;5088245;28;20039;-77
2021/11/29 12:14:13;;;;;;;2.37;0.77;;;6.80;99.90;;;;;;5098408;28;20045;-77
2021/11/29 12:16:41;;;;;;;3.10;0.70;;;6.80;99.90;;;;;;5093912;28;20035;-77
2021/11/29 12:19:43;;;;;;;3.35;0.70;;;6.60;99.90;;;;;;5103512;28;20036;-77
2021/11/29 12:22:15;;;;;;;2.47;1.00;;;6.50;99.90;;;;;;5053663;28;20044;-77
2021/11/29 12:24:57;;;;;;;2.85;0.70;;;6.40;99.90;;;;;;5081518;28;20036;-77
2021/11/29 12:27:43;;;;;;;2.05;0.70;;;6.30;99.90;;;;;;5077923;28;20051;-77
2021/11/29 12:30:14;;;;;;;3.80;0.60;;;6.30;99.90;;;;;;5076450;28;20032;-78
2021/11/29 12:32:55;;;;;;;2.20;0.80;;;6.30;99.90;;;;;;5076741;28;20043;-77
2021/11/29 12:35:38;;;;;;;2.17;1.25;;;6.30;99.90;;;;;;5075389;28;20527;-77
2021/11/29 12:38:11;;;;;;;2.47;1.05;;;6.20;99.90;;;;;;5091419;28;20039;-77
2021/11/29 12:43:51;;;;;;;2.33;1.10;;;6.10;99.90;;;;;;5079506;28;20402;-76
2021/11/29 12:46:30;;;;;;;2.58;0.90;;;6.10;99.90;;;;;;5029814;28;20048;-76
2021/11/29 12:49:02;;;;;;;3.75;1.92;;;6.10;99.90;;;;;;5039131;28;20031;-76
2021/11/29 12:51:43;;;;;;;3.90;1.00;;;6.20;99.90;;;;;;5060237;28;20531;-78
2021/11/29 12:54:45;;;;;;;2.05;0.90;;;6.20;99.90;;;;;;5051692;28;20033;-78
2021/11/29 12:57:17;;;;;;;4.55;1.23;;;6.20;99.90;;;;;;5011145;28;20040;-78
2021/11/29 12:59:56;;;;;;;4.00;1.23;;;6.20;99.90;;;;;;5041049;28;20403;-76
2021/11/29 13:02:43;;;;;;;4.97;1.90;;;6.30;99.90;;;;;;5032605;28;20029;-79
2021/11/29 13:05:25;;;;;;;3.22;1.30;;;6.30;99.90;;;;;;5033495;28;20037;-76
2021/11/29 13:08:19;;;;;;;1.93;0.83;;;6.40;99.90;;;;;;5048763;28;20029;-77
2021/11/29 13:10:53;;;;;;;2.38;1.13;;;6.30;99.90;;;;;;5055513;28;20033;-77